sensor_id;sensor_type;location;lat;lon;timestamp;P1;durP1;ratioP1;P2;durP2;ratioP2
21843;SDS011;11084;52.482;9.108;2022-08-03T00:00:49;4.90;;;2.80;;
21843;SDS011;11084;52.482;9.108;2022-08-03T00:03:15;5.57;;;2.27;;
21843;SDS011;11084;52.482;9.108;2022-08-03T00:05:41;2.83;;;2.33;;
21843;SDS011;11084;52.482;9.108;2022-08-03T00:08:07;4.33;;;2.47;;
21843;SDS011;11084;52.482;9.108;2022-08-03T00:10:32;7.13;;;2.63;;
21843;SDS011;11084;52.482;9.108;2022-08-03T00:12:59;4.43;;;2.53;;
21843;SDS011;11084;52.482;9.108;2022-08-03T00:15:24;7.03;;;2.80;;
21843;SDS011;11084;52.482;9.108;2022-08-03T00:17:51;2.70;;;2.43;;
21843;SDS011;11084;52.482;9.108;2022-08-03T00:20:17;10.00;;;3.30;;
21843;SDS011;11084;52.482;9.108;2022-08-03T00:22:43;5.40;;;2.97;;
21843;SDS011;11084;52.482;9.108;2022-08-03T00:25:09;8.23;;;2.70;;
21843;SDS011;11084;52.482;9.108;2022-08-03T00:27:35;4.50;;;2.80;;
21843;SDS011;11084;52.482;9.108;2022-08-03T00:30:01;8.27;;;2.97;;
21843;SDS011;11084;52.482;9.108;2022-08-03T00:32:27;2.50;;;2.30;;
21843;SDS011;11084;52.482;9.108;2022-08-03T00:34:53;5.70;;;2.50;;
21843;SDS011;11084;52.482;9.108;2022-08-03T00:37:19;6.23;;;2.30;;
21843;SDS011;11084;52.482;9.108;2022-08-03T00:39:45;3.53;;;2.60;;
21843;SDS011;11084;52.482;9.108;2022-08-03T00:42:13;3.93;;;3.07;;
21843;SDS011;11084;52.482;9.108;2022-08-03T00:44:40;4.53;;;2.83;;
21843;SDS011;11084;52.482;9.108;2022-08-03T00:47:08;3.90;;;3.10;;
21843;SDS011;11084;52.482;9.108;2022-08-03T00:49:35;6.37;;;2.47;;
21843;SDS011;11084;52.482;9.108;2022-08-03T00:52:04;3.33;;;2.90;;
21843;SDS011;11084;52.482;9.108;2022-08-03T00:54:32;6.37;;;2.90;;
21843;SDS011;11084;52.482;9.108;2022-08-03T00:57:00;3.73;;;2.63;;
21843;SDS011;11084;52.482;9.108;2022-08-03T00:59:26;3.43;;;2.90;;
21843;SDS011;11084;52.482;9.108;2022-08-03T01:01:54;2.47;;;2.23;;
21843;SDS011;11084;52.482;9.108;2022-08-03T01:04:20;4.77;;;2.80;;
21843;SDS011;11084;52.482;9.108;2022-08-03T01:18:37;3.97;;;3.00;;
21843;SDS011;11084;52.482;9.108;2022-08-03T01:28:17;2.73;;;2.50;;
21843;SDS011;11084;52.482;9.108;2022-08-03T01:31:04;2.57;;;2.37;;
21843;SDS011;11084;52.482;9.108;2022-08-03T01:33:38;3.17;;;2.70;;
21843;SDS011;11084;52.482;9.108;2022-08-03T01:36:09;3.77;;;2.93;;
21843;SDS011;11084;52.482;9.108;2022-08-03T01:38:43;3.40;;;2.67;;
21843;SDS011;11084;52.482;9.108;2022-08-03T01:41:18;4.43;;;2.90;;
21843;SDS011;11084;52.482;9.108;2022-08-03T01:43:48;2.67;;;2.33;;
21843;SDS011;11084;52.482;9.108;2022-08-03T01:46:16;3.70;;;2.57;;
21843;SDS011;11084;52.482;9.108;2022-08-03T01:48:45;2.50;;;2.30;;
21843;SDS011;11084;52.482;9.108;2022-08-03T01:51:14;4.03;;;2.47;;
21843;SDS011;11084;52.482;9.108;2022-08-03T01:53:43;5.40;;;3.97;;
21843;SDS011;11084;52.482;9.108;2022-08-03T01:56:09;8.73;;;4.10;;
21843;SDS011;11084;52.482;9.108;2022-08-03T01:58:36;7.80;;;3.80;;
21843;SDS011;11084;52.482;9.108;2022-08-03T02:01:05;4.50;;;2.43;;
21843;SDS011;11084;52.482;9.108;2022-08-03T02:03:33;3.50;;;2.03;;
21843;SDS011;11084;52.482;9.108;2022-08-03T02:06:02;5.00;;;2.20;;
21843;SDS011;11084;52.482;9.108;2022-08-03T02:08:30;3.43;;;2.33;;
21843;SDS011;11084;52.482;9.108;2022-08-03T02:10:58;3.87;;;2.60;;
21843;SDS011;11084;52.482;9.108;2022-08-03T02:13:26;2.77;;;2.47;;
21843;SDS011;11084;52.482;9.108;2022-08-03T02:15:53;6.90;;;2.43;;
21843;SDS011;11084;52.482;9.108;2022-08-03T02:18:22;3.40;;;2.10;;
21843;SDS011;11084;52.482;9.108;2022-08-03T02:20:49;2.83;;;2.27;;
21843;SDS011;11084;52.482;9.108;2022-08-03T02:23:16;9.07;;;2.70;;
21843;SDS011;11084;52.482;9.108;2022-08-03T02:25:44;2.70;;;2.27;;
21843;SDS011;11084;52.482;9.108;2022-08-03T02:28:21;4.73;;;2.17;;
21843;SDS011;11084;52.482;9.108;2022-08-03T02:30:56;2.03;;;1.83;;
21843;SDS011;11084;52.482;9.108;2022-08-03T02:33:29;3.30;;;2.13;;
21843;SDS011;11084;52.482;9.108;2022-08-03T02:36:01;2.80;;;2.50;;
21843;SDS011;11084;52.482;9.108;2022-08-03T02:38:30;10.40;;;2.50;;
21843;SDS011;11084;52.482;9.108;2022-08-03T02:41:03;3.17;;;2.27;;
21843;SDS011;11084;52.482;9.108;2022-08-03T02:43:32;4.30;;;2.47;;
21843;SDS011;11084;52.482;9.108;2022-08-03T02:46:00;2.33;;;2.03;;
21843;SDS011;11084;52.482;9.108;2022-08-03T02:48:27;3.20;;;2.07;;
21843;SDS011;11084;52.482;9.108;2022-08-03T02:50:56;3.60;;;2.47;;
21843;SDS011;11084;52.482;9.108;2022-08-03T02:53:24;4.33;;;2.57;;
21843;SDS011;11084;52.482;9.108;2022-08-03T02:55:51;3.90;;;2.30;;
21843;SDS011;11084;52.482;9.108;2022-08-03T02:58:19;2.20;;;2.00;;
21843;SDS011;11084;52.482;9.108;2022-08-03T03:00:46;2.80;;;2.23;;
21843;SDS011;11084;52.482;9.108;2022-08-03T03:03:13;3.13;;;2.17;;
21843;SDS011;11084;52.482;9.108;2022-08-03T03:05:40;3.13;;;2.40;;
21843;SDS011;11084;52.482;9.108;2022-08-03T03:08:09;2.83;;;2.03;;
21843;SDS011;11084;52.482;9.108;2022-08-03T03:10:38;1.73;;;1.63;;
21843;SDS011;11084;52.482;9.108;2022-08-03T03:13:05;2.60;;;2.00;;
21843;SDS011;11084;52.482;9.108;2022-08-03T03:15:32;2.57;;;2.10;;
21843;SDS011;11084;52.482;9.108;2022-08-03T03:18:01;2.43;;;1.90;;
21843;SDS011;11084;52.482;9.108;2022-08-03T03:20:28;6.57;;;2.37;;
21843;SDS011;11084;52.482;9.108;2022-08-03T03:23:00;3.07;;;2.00;;
21843;SDS011;11084;52.482;9.108;2022-08-03T03:25:27;2.67;;;1.87;;
21843;SDS011;11084;52.482;9.108;2022-08-03T03:27:56;3.57;;;1.70;;
21843;SDS011;11084;52.482;9.108;2022-08-03T03:30:24;2.23;;;2.03;;
21843;SDS011;11084;52.482;9.108;2022-08-03T03:32:50;2.27;;;1.90;;
21843;SDS011;11084;52.482;9.108;2022-08-03T03:35:17;6.43;;;1.87;;
21843;SDS011;11084;52.482;9.108;2022-08-03T03:37:43;4.43;;;2.07;;
21843;SDS011;11084;52.482;9.108;2022-08-03T03:40:09;5.07;;;2.00;;
21843;SDS011;11084;52.482;9.108;2022-08-03T03:42:36;4.73;;;2.27;;
21843;SDS011;11084;52.482;9.108;2022-08-03T03:45:03;2.57;;;1.97;;
21843;SDS011;11084;52.482;9.108;2022-08-03T03:47:33;2.90;;;1.67;;
21843;SDS011;11084;52.482;9.108;2022-08-03T03:50:03;2.83;;;2.03;;
21843;SDS011;11084;52.482;9.108;2022-08-03T03:52:31;2.30;;;2.07;;
21843;SDS011;11084;52.482;9.108;2022-08-03T03:54:57;2.10;;;1.63;;
21843;SDS011;11084;52.482;9.108;2022-08-03T03:57:24;2.70;;;1.47;;
21843;SDS011;11084;52.482;9.108;2022-08-03T03:59:50;2.50;;;1.57;;
21843;SDS011;11084;52.482;9.108;2022-08-03T04:02:17;3.77;;;2.17;;
21843;SDS011;11084;52.482;9.108;2022-08-03T04:04:43;7.50;;;1.63;;
21843;SDS011;11084;52.482;9.108;2022-08-03T04:07:27;2.53;;;1.80;;
21843;SDS011;11084;52.482;9.108;2022-08-03T04:10:36;4.33;;;2.13;;
21843;SDS011;11084;52.482;9.108;2022-08-03T04:13:26;1.37;;;1.27;;
21843;SDS011;11084;52.482;9.108;2022-08-03T04:16:03;5.57;;;2.47;;
21843;SDS011;11084;52.482;9.108;2022-08-03T04:18:31;3.47;;;2.07;;
21843;SDS011;11084;52.482;9.108;2022-08-03T04:21:04;3.13;;;2.37;;
21843;SDS011;11084;52.482;9.108;2022-08-03T04:23:34;2.47;;;1.73;;
21843;SDS011;11084;52.482;9.108;2022-08-03T04:26:06;2.93;;;2.23;;
21843;SDS011;11084;52.482;9.108;2022-08-03T04:28:36;3.37;;;1.43;;
21843;SDS011;11084;52.482;9.108;2022-08-03T04:31:07;2.53;;;1.90;;
21843;SDS011;11084;52.482;9.108;2022-08-03T04:33:34;2.07;;;1.60;;
21843;SDS011;11084;52.482;9.108;2022-08-03T04:36:04;7.90;;;1.70;;
21843;SDS011;11084;52.482;9.108;2022-08-03T04:38:37;4.43;;;1.70;;
21843;SDS011;11084;52.482;9.108;2022-08-03T04:41:11;2.07;;;1.67;;
21843;SDS011;11084;52.482;9.108;2022-08-03T04:43:38;1.47;;;1.37;;
21843;SDS011;11084;52.482;9.108;2022-08-03T04:46:06;2.13;;;1.53;;
21843;SDS011;11084;52.482;9.108;2022-08-03T04:48:33;3.70;;;2.13;;
21843;SDS011;11084;52.482;9.108;2022-08-03T04:51:00;1.70;;;1.57;;
21843;SDS011;11084;52.482;9.108;2022-08-03T04:53:28;3.43;;;1.97;;
21843;SDS011;11084;52.482;9.108;2022-08-03T04:56:02;2.00;;;1.80;;
21843;SDS011;11084;52.482;9.108;2022-08-03T04:58:29;5.13;;;2.20;;
21843;SDS011;11084;52.482;9.108;2022-08-03T05:00:56;2.10;;;1.73;;
21843;SDS011;11084;52.482;9.108;2022-08-03T05:03:22;2.50;;;1.73;;
21843;SDS011;11084;52.482;9.108;2022-08-03T05:05:48;6.47;;;2.07;;
21843;SDS011;11084;52.482;9.108;2022-08-03T05:08:14;1.90;;;1.70;;
21843;SDS011;11084;52.482;9.108;2022-08-03T05:10:40;3.23;;;1.87;;
21843;SDS011;11084;52.482;9.108;2022-08-03T05:13:07;1.97;;;1.50;;
21843;SDS011;11084;52.482;9.108;2022-08-03T05:15:37;3.40;;;2.30;;
21843;SDS011;11084;52.482;9.108;2022-08-03T05:18:04;3.60;;;1.97;;
21843;SDS011;11084;52.482;9.108;2022-08-03T05:20:36;2.47;;;1.40;;
21843;SDS011;11084;52.482;9.108;2022-08-03T05:23:02;1.73;;;1.20;;
21843;SDS011;11084;52.482;9.108;2022-08-03T05:25:28;2.37;;;1.33;;
21843;SDS011;11084;52.482;9.108;2022-08-03T05:27:55;4.73;;;1.30;;
21843;SDS011;11084;52.482;9.108;2022-08-03T05:30:21;2.07;;;1.40;;
21843;SDS011;11084;52.482;9.108;2022-08-03T05:32:47;3.43;;;1.40;;
21843;SDS011;11084;52.482;9.108;2022-08-03T05:35:13;1.47;;;1.37;;
21843;SDS011;11084;52.482;9.108;2022-08-03T05:37:39;1.60;;;1.20;;
21843;SDS011;11084;52.482;9.108;2022-08-03T05:40:05;3.03;;;1.50;;
21843;SDS011;11084;52.482;9.108;2022-08-03T05:42:35;1.37;;;1.10;;
21843;SDS011;11084;52.482;9.108;2022-08-03T05:45:14;3.03;;;1.33;;
21843;SDS011;11084;52.482;9.108;2022-08-03T05:47:44;2.23;;;1.30;;
21843;SDS011;11084;52.482;9.108;2022-08-03T05:50:11;1.60;;;1.33;;
21843;SDS011;11084;52.482;9.108;2022-08-03T05:52:39;1.40;;;1.27;;
21843;SDS011;11084;52.482;9.108;2022-08-03T05:55:10;7.47;;;1.20;;
21843;SDS011;11084;52.482;9.108;2022-08-03T05:57:38;2.53;;;1.50;;
21843;SDS011;11084;52.482;9.108;2022-08-03T06:00:08;1.90;;;1.00;;
21843;SDS011;11084;52.482;9.108;2022-08-03T06:02:39;1.50;;;1.10;;
21843;SDS011;11084;52.482;9.108;2022-08-03T06:05:05;1.07;;;0.90;;
21843;SDS011;11084;52.482;9.108;2022-08-03T06:07:34;2.03;;;1.50;;
21843;SDS011;11084;52.482;9.108;2022-08-03T06:10:01;2.10;;;1.10;;
21843;SDS011;11084;52.482;9.108;2022-08-03T06:12:29;1.50;;;1.30;;
21843;SDS011;11084;52.482;9.108;2022-08-03T06:15:02;1.20;;;1.10;;
21843;SDS011;11084;52.482;9.108;2022-08-03T06:17:29;5.70;;;1.07;;
21843;SDS011;11084;52.482;9.108;2022-08-03T06:19:58;2.60;;;1.20;;
21843;SDS011;11084;52.482;9.108;2022-08-03T06:22:26;0.87;;;0.87;;
21843;SDS011;11084;52.482;9.108;2022-08-03T06:24:53;2.87;;;1.10;;
21843;SDS011;11084;52.482;9.108;2022-08-03T06:27:22;1.57;;;1.00;;
21843;SDS011;11084;52.482;9.108;2022-08-03T06:29:54;1.00;;;0.90;;
21843;SDS011;11084;52.482;9.108;2022-08-03T06:32:20;1.97;;;0.90;;
21843;SDS011;11084;52.482;9.108;2022-08-03T06:34:47;3.53;;;0.80;;
21843;SDS011;11084;52.482;9.108;2022-08-03T06:37:13;1.20;;;0.90;;
21843;SDS011;11084;52.482;9.108;2022-08-03T06:39:39;1.03;;;0.90;;
21843;SDS011;11084;52.482;9.108;2022-08-03T06:42:11;1.23;;;1.10;;
21843;SDS011;11084;52.482;9.108;2022-08-03T06:44:42;1.33;;;0.80;;
21843;SDS011;11084;52.482;9.108;2022-08-03T06:47:08;5.10;;;1.10;;
21843;SDS011;11084;52.482;9.108;2022-08-03T06:49:34;0.60;;;0.60;;
21843;SDS011;11084;52.482;9.108;2022-08-03T06:52:03;1.70;;;1.20;;
21843;SDS011;11084;52.482;9.108;2022-08-03T06:54:29;1.37;;;1.00;;
21843;SDS011;11084;52.482;9.108;2022-08-03T06:56:58;1.53;;;0.70;;
21843;SDS011;11084;52.482;9.108;2022-08-03T06:59:25;3.30;;;0.77;;
21843;SDS011;11084;52.482;9.108;2022-08-03T07:01:51;2.70;;;1.03;;
21843;SDS011;11084;52.482;9.108;2022-08-03T07:04:22;0.83;;;0.80;;
21843;SDS011;11084;52.482;9.108;2022-08-03T07:06:50;1.03;;;0.60;;
21843;SDS011;11084;52.482;9.108;2022-08-03T07:09:25;3.63;;;0.90;;
21843;SDS011;11084;52.482;9.108;2022-08-03T07:11:52;2.23;;;0.60;;
21843;SDS011;11084;52.482;9.108;2022-08-03T07:14:19;2.47;;;0.67;;
21843;SDS011;11084;52.482;9.108;2022-08-03T07:16:46;0.87;;;0.80;;
21843;SDS011;11084;52.482;9.108;2022-08-03T07:19:12;1.93;;;0.60;;
21843;SDS011;11084;52.482;9.108;2022-08-03T07:21:41;0.70;;;0.70;;
21843;SDS011;11084;52.482;9.108;2022-08-03T07:24:12;1.97;;;0.83;;
21843;SDS011;11084;52.482;9.108;2022-08-03T07:26:46;0.63;;;0.63;;
21843;SDS011;11084;52.482;9.108;2022-08-03T07:29:17;8.90;;;0.85;;
21843;SDS011;11084;52.482;9.108;2022-08-03T07:31:48;0.60;;;0.60;;
21843;SDS011;11084;52.482;9.108;2022-08-03T07:34:19;0.82;;;0.68;;
21843;SDS011;11084;52.482;9.108;2022-08-03T07:36:48;0.57;;;0.50;;
21843;SDS011;11084;52.482;9.108;2022-08-03T07:39:23;4.95;;;0.93;;
21843;SDS011;11084;52.482;9.108;2022-08-03T07:41:49;1.27;;;0.88;;
21843;SDS011;11084;52.482;9.108;2022-08-03T07:44:19;3.15;;;0.90;;
21843;SDS011;11084;52.482;9.108;2022-08-03T07:46:45;1.05;;;0.47;;
21843;SDS011;11084;52.482;9.108;2022-08-03T07:49:12;6.32;;;0.70;;
21843;SDS011;11084;52.482;9.108;2022-08-03T07:51:38;0.50;;;0.50;;
21843;SDS011;11084;52.482;9.108;2022-08-03T07:54:04;0.95;;;0.73;;
21843;SDS011;11084;52.482;9.108;2022-08-03T07:56:31;3.28;;;0.80;;
21843;SDS011;11084;52.482;9.108;2022-08-03T07:59:07;1.05;;;0.60;;
21843;SDS011;11084;52.482;9.108;2022-08-03T08:01:33;1.55;;;0.70;;
21843;SDS011;11084;52.482;9.108;2022-08-03T08:04:07;1.08;;;0.75;;
21843;SDS011;11084;52.482;9.108;2022-08-03T08:06:33;0.63;;;0.52;;
21843;SDS011;11084;52.482;9.108;2022-08-03T08:09:00;1.13;;;0.40;;
21843;SDS011;11084;52.482;9.108;2022-08-03T08:11:26;0.95;;;0.50;;
21843;SDS011;11084;52.482;9.108;2022-08-03T08:13:52;0.57;;;0.40;;
21843;SDS011;11084;52.482;9.108;2022-08-03T08:16:21;3.45;;;0.40;;
21843;SDS011;11084;52.482;9.108;2022-08-03T08:18:52;0.50;;;0.50;;
21843;SDS011;11084;52.482;9.108;2022-08-03T08:21:20;0.88;;;0.70;;
21843;SDS011;11084;52.482;9.108;2022-08-03T08:23:47;1.45;;;0.60;;
21843;SDS011;11084;52.482;9.108;2022-08-03T08:26:13;1.08;;;0.90;;
21843;SDS011;11084;52.482;9.108;2022-08-03T08:28:39;0.95;;;0.60;;
21843;SDS011;11084;52.482;9.108;2022-08-03T08:31:05;4.68;;;0.95;;
21843;SDS011;11084;52.482;9.108;2022-08-03T08:33:32;3.20;;;1.45;;
21843;SDS011;11084;52.482;9.108;2022-08-03T08:36:00;0.80;;;0.57;;
21843;SDS011;11084;52.482;9.108;2022-08-03T08:38:26;0.95;;;0.50;;
21843;SDS011;11084;52.482;9.108;2022-08-03T08:40:54;1.45;;;0.65;;
21843;SDS011;11084;52.482;9.108;2022-08-03T08:43:20;9.50;;;1.15;;
21843;SDS011;11084;52.482;9.108;2022-08-03T08:45:49;2.65;;;1.00;;
21843;SDS011;11084;52.482;9.108;2022-08-03T08:48:20;0.52;;;0.45;;
21843;SDS011;11084;52.482;9.108;2022-08-03T08:50:55;2.63;;;0.75;;
21843;SDS011;11084;52.482;9.108;2022-08-03T08:53:24;0.85;;;0.60;;
21843;SDS011;11084;52.482;9.108;2022-08-03T08:55:53;1.38;;;0.55;;
21843;SDS011;11084;52.482;9.108;2022-08-03T08:58:24;0.50;;;0.50;;
21843;SDS011;11084;52.482;9.108;2022-08-03T09:00:54;2.63;;;0.68;;
21843;SDS011;11084;52.482;9.108;2022-08-03T09:03:20;1.75;;;0.60;;
21843;SDS011;11084;52.482;9.108;2022-08-03T09:05:47;6.38;;;0.75;;
21843;SDS011;11084;52.482;9.108;2022-08-03T09:08:14;4.82;;;1.25;;
21843;SDS011;11084;52.482;9.108;2022-08-03T09:10:40;4.35;;;1.40;;
21843;SDS011;11084;52.482;9.108;2022-08-03T09:13:06;9.38;;;1.35;;
21843;SDS011;11084;52.482;9.108;2022-08-03T09:15:32;6.72;;;1.20;;
21843;SDS011;11084;52.482;9.108;2022-08-03T09:18:01;6.80;;;1.20;;
21843;SDS011;11084;52.482;9.108;2022-08-03T09:20:30;1.38;;;0.80;;
21843;SDS011;11084;52.482;9.108;2022-08-03T09:23:02;6.07;;;1.27;;
21843;SDS011;11084;52.482;9.108;2022-08-03T09:30:39;5.25;;;0.98;;
21843;SDS011;11084;52.482;9.108;2022-08-03T09:33:08;4.30;;;1.17;;
21843;SDS011;11084;52.482;9.108;2022-08-03T09:35:44;5.20;;;1.17;;
21843;SDS011;11084;52.482;9.108;2022-08-03T09:40:41;5.25;;;1.15;;
21843;SDS011;11084;52.482;9.108;2022-08-03T09:43:08;4.20;;;1.13;;
21843;SDS011;11084;52.482;9.108;2022-08-03T09:45:38;3.58;;;1.33;;
21843;SDS011;11084;52.482;9.108;2022-08-03T09:50:57;8.90;;;1.35;;
21843;SDS011;11084;52.482;9.108;2022-08-03T09:53:25;3.65;;;1.40;;
21843;SDS011;11084;52.482;9.108;2022-08-03T09:58:26;3.90;;;1.00;;
21843;SDS011;11084;52.482;9.108;2022-08-03T10:00:58;2.45;;;1.02;;
21843;SDS011;11084;52.482;9.108;2022-08-03T10:03:29;3.65;;;1.20;;
21843;SDS011;11084;52.482;9.108;2022-08-03T10:05:57;2.80;;;1.13;;
21843;SDS011;11084;52.482;9.108;2022-08-03T10:08:24;4.60;;;1.30;;
21843;SDS011;11084;52.482;9.108;2022-08-03T10:10:51;1.73;;;0.98;;
21843;SDS011;11084;52.482;9.108;2022-08-03T10:13:22;1.98;;;1.25;;
21843;SDS011;11084;52.482;9.108;2022-08-03T10:15:49;6.63;;;1.42;;
21843;SDS011;11084;52.482;9.108;2022-08-03T10:18:15;6.72;;;1.10;;
21843;SDS011;11084;52.482;9.108;2022-08-03T10:20:48;7.05;;;1.35;;
21843;SDS011;11084;52.482;9.108;2022-08-03T10:23:18;7.13;;;1.00;;
21843;SDS011;11084;52.482;9.108;2022-08-03T10:25:46;6.68;;;1.40;;
21843;SDS011;11084;52.482;9.108;2022-08-03T10:28:18;11.18;;;1.48;;
21843;SDS011;11084;52.482;9.108;2022-08-03T10:30:47;3.67;;;1.05;;
21843;SDS011;11084;52.482;9.108;2022-08-03T10:33:20;2.22;;;1.10;;
21843;SDS011;11084;52.482;9.108;2022-08-03T10:35:53;3.92;;;1.40;;
21843;SDS011;11084;52.482;9.108;2022-08-03T10:38:28;5.18;;;1.13;;
21843;SDS011;11084;52.482;9.108;2022-08-03T10:40:58;3.05;;;1.58;;
21843;SDS011;11084;52.482;9.108;2022-08-03T10:43:26;1.60;;;1.00;;
21843;SDS011;11084;52.482;9.108;2022-08-03T10:46:02;2.45;;;1.42;;
21843;SDS011;11084;52.482;9.108;2022-08-03T10:48:31;6.68;;;1.35;;
21843;SDS011;11084;52.482;9.108;2022-08-03T10:50:59;8.38;;;1.40;;
21843;SDS011;11084;52.482;9.108;2022-08-03T10:53:36;7.45;;;1.50;;
21843;SDS011;11084;52.482;9.108;2022-08-03T10:56:13;2.38;;;1.38;;
21843;SDS011;11084;52.482;9.108;2022-08-03T11:05:43;3.97;;;1.63;;
21843;SDS011;11084;52.482;9.108;2022-08-03T11:08:30;7.32;;;1.33;;
21843;SDS011;11084;52.482;9.108;2022-08-03T11:16:27;8.27;;;1.35;;
21843;SDS011;11084;52.482;9.108;2022-08-03T11:18:59;4.07;;;1.10;;
21843;SDS011;11084;52.482;9.108;2022-08-03T11:30:06;1.67;;;1.08;;
21843;SDS011;11084;52.482;9.108;2022-08-03T11:35:16;1.35;;;1.10;;
21843;SDS011;11084;52.482;9.108;2022-08-03T11:46:04;3.30;;;1.10;;
21843;SDS011;11084;52.482;9.108;2022-08-03T11:48:42;6.60;;;1.60;;
21843;SDS011;11084;52.482;9.108;2022-08-03T11:51:24;5.78;;;1.33;;
21843;SDS011;11084;52.482;9.108;2022-08-03T11:53:53;5.15;;;1.45;;
21843;SDS011;11084;52.482;9.108;2022-08-03T11:56:25;4.82;;;1.35;;
21843;SDS011;11084;52.482;9.108;2022-08-03T11:58:55;4.88;;;1.10;;
21843;SDS011;11084;52.482;9.108;2022-08-03T12:01:23;5.78;;;1.30;;
21843;SDS011;11084;52.482;9.108;2022-08-03T12:03:50;6.55;;;1.70;;
21843;SDS011;11084;52.482;9.108;2022-08-03T12:06:17;5.35;;;1.50;;
21843;SDS011;11084;52.482;9.108;2022-08-03T12:08:44;5.30;;;1.50;;
21843;SDS011;11084;52.482;9.108;2022-08-03T12:11:12;4.97;;;1.35;;
21843;SDS011;11084;52.482;9.108;2022-08-03T12:13:42;4.88;;;1.25;;
21843;SDS011;11084;52.482;9.108;2022-08-03T12:16:22;8.25;;;1.50;;
21843;SDS011;11084;52.482;9.108;2022-08-03T12:19:02;5.18;;;1.58;;
21843;SDS011;11084;52.482;9.108;2022-08-03T12:21:33;1.77;;;1.25;;
21843;SDS011;11084;52.482;9.108;2022-08-03T12:24:01;3.00;;;1.15;;
21843;SDS011;11084;52.482;9.108;2022-08-03T12:26:30;6.25;;;1.65;;
21843;SDS011;11084;52.482;9.108;2022-08-03T12:29:20;5.68;;;1.20;;
21843;SDS011;11084;52.482;9.108;2022-08-03T12:31:50;4.32;;;1.30;;
21843;SDS011;11084;52.482;9.108;2022-08-03T12:34:16;5.85;;;1.40;;
21843;SDS011;11084;52.482;9.108;2022-08-03T12:36:49;10.98;;;1.60;;
21843;SDS011;11084;52.482;9.108;2022-08-03T12:39:21;9.50;;;1.40;;
21843;SDS011;11084;52.482;9.108;2022-08-03T12:41:54;3.70;;;1.25;;
21843;SDS011;11084;52.482;9.108;2022-08-03T12:44:31;5.88;;;1.35;;
21843;SDS011;11084;52.482;9.108;2022-08-03T12:46:59;3.90;;;1.35;;
21843;SDS011;11084;52.482;9.108;2022-08-03T12:49:26;4.78;;;1.50;;
21843;SDS011;11084;52.482;9.108;2022-08-03T12:54:25;1.20;;;1.10;;
21843;SDS011;11084;52.482;9.108;2022-08-03T12:57:00;4.22;;;1.30;;
21843;SDS011;11084;52.482;9.108;2022-08-03T12:59:36;4.22;;;1.67;;
21843;SDS011;11084;52.482;9.108;2022-08-03T13:04:48;3.25;;;1.10;;
21843;SDS011;11084;52.482;9.108;2022-08-03T13:07:16;5.22;;;1.08;;
21843;SDS011;11084;52.482;9.108;2022-08-03T13:12:16;6.47;;;1.50;;
21843;SDS011;11084;52.482;9.108;2022-08-03T13:14:53;5.60;;;1.20;;
21843;SDS011;11084;52.482;9.108;2022-08-03T13:17:21;6.72;;;1.40;;
21843;SDS011;11084;52.482;9.108;2022-08-03T13:19:48;1.70;;;0.93;;
21843;SDS011;11084;52.482;9.108;2022-08-03T13:22:15;9.90;;;1.30;;
21843;SDS011;11084;52.482;9.108;2022-08-03T13:24:52;3.15;;;1.25;;
21843;SDS011;11084;52.482;9.108;2022-08-03T13:27:21;7.30;;;1.30;;
21843;SDS011;11084;52.482;9.108;2022-08-03T13:29:49;1.73;;;1.10;;
21843;SDS011;11084;52.482;9.108;2022-08-03T13:32:18;2.80;;;1.38;;
21843;SDS011;11084;52.482;9.108;2022-08-03T13:34:45;2.10;;;1.30;;
21843;SDS011;11084;52.482;9.108;2022-08-03T13:37:12;2.45;;;1.20;;
21843;SDS011;11084;52.482;9.108;2022-08-03T13:39:39;6.78;;;1.60;;
21843;SDS011;11084;52.482;9.108;2022-08-03T13:42:06;2.65;;;1.30;;
21843;SDS011;11084;52.482;9.108;2022-08-03T13:44:33;4.78;;;1.60;;
21843;SDS011;11084;52.482;9.108;2022-08-03T13:47:02;2.05;;;1.25;;
21843;SDS011;11084;52.482;9.108;2022-08-03T13:49:29;3.53;;;1.27;;
21843;SDS011;11084;52.482;9.108;2022-08-03T13:51:55;3.55;;;1.20;;
21843;SDS011;11084;52.482;9.108;2022-08-03T13:54:21;3.40;;;1.27;;
21843;SDS011;11084;52.482;9.108;2022-08-03T13:56:49;1.30;;;1.20;;
21843;SDS011;11084;52.482;9.108;2022-08-03T13:59:20;1.38;;;1.08;;
21843;SDS011;11084;52.482;9.108;2022-08-03T14:01:49;3.63;;;1.30;;
21843;SDS011;11084;52.482;9.108;2022-08-03T14:04:17;3.38;;;1.23;;
21843;SDS011;11084;52.482;9.108;2022-08-03T14:06:45;2.80;;;1.60;;
21843;SDS011;11084;52.482;9.108;2022-08-03T14:09:13;3.67;;;1.48;;
21843;SDS011;11084;52.482;9.108;2022-08-03T14:11:41;7.35;;;1.27;;
21843;SDS011;11084;52.482;9.108;2022-08-03T14:14:08;4.63;;;1.63;;
21843;SDS011;11084;52.482;9.108;2022-08-03T14:16:35;6.75;;;1.25;;
21843;SDS011;11084;52.482;9.108;2022-08-03T14:19:03;5.25;;;1.65;;
21843;SDS011;11084;52.482;9.108;2022-08-03T14:21:29;2.30;;;1.23;;
21843;SDS011;11084;52.482;9.108;2022-08-03T14:23:57;2.90;;;1.20;;
21843;SDS011;11084;52.482;9.108;2022-08-03T14:26:23;16.88;;;1.60;;
21843;SDS011;11084;52.482;9.108;2022-08-03T14:28:53;2.55;;;1.38;;
21843;SDS011;11084;52.482;9.108;2022-08-03T14:31:20;5.28;;;1.70;;
21843;SDS011;11084;52.482;9.108;2022-08-03T14:33:47;3.63;;;1.45;;
21843;SDS011;11084;52.482;9.108;2022-08-03T14:36:15;5.85;;;1.42;;
21843;SDS011;11084;52.482;9.108;2022-08-03T14:38:41;4.22;;;1.40;;
21843;SDS011;11084;52.482;9.108;2022-08-03T14:41:07;3.83;;;1.60;;
21843;SDS011;11084;52.482;9.108;2022-08-03T14:43:33;3.88;;;1.33;;
21843;SDS011;11084;52.482;9.108;2022-08-03T14:45:59;2.28;;;1.30;;
21843;SDS011;11084;52.482;9.108;2022-08-03T14:48:25;3.40;;;1.30;;
21843;SDS011;11084;52.482;9.108;2022-08-03T14:50:52;3.30;;;1.40;;
21843;SDS011;11084;52.482;9.108;2022-08-03T14:53:19;2.55;;;1.55;;
21843;SDS011;11084;52.482;9.108;2022-08-03T14:55:46;6.00;;;1.38;;
21843;SDS011;11084;52.482;9.108;2022-08-03T14:58:14;5.13;;;1.75;;
21843;SDS011;11084;52.482;9.108;2022-08-03T15:00:40;1.83;;;1.30;;
21843;SDS011;11084;52.482;9.108;2022-08-03T15:03:07;2.47;;;1.48;;
21843;SDS011;11084;52.482;9.108;2022-08-03T15:05:34;2.30;;;1.52;;
21843;SDS011;11084;52.482;9.108;2022-08-03T15:08:02;2.30;;;1.50;;
21843;SDS011;11084;52.482;9.108;2022-08-03T15:10:28;7.30;;;1.40;;
21843;SDS011;11084;52.482;9.108;2022-08-03T15:12:54;2.03;;;1.30;;
21843;SDS011;11084;52.482;9.108;2022-08-03T15:15:21;3.25;;;1.48;;
21843;SDS011;11084;52.482;9.108;2022-08-03T15:17:50;7.20;;;1.35;;
21843;SDS011;11084;52.482;9.108;2022-08-03T15:20:16;3.47;;;1.20;;
21843;SDS011;11084;52.482;9.108;2022-08-03T15:22:42;4.00;;;1.60;;
21843;SDS011;11084;52.482;9.108;2022-08-03T15:25:08;7.95;;;1.90;;
21843;SDS011;11084;52.482;9.108;2022-08-03T15:27:35;5.72;;;1.30;;
21843;SDS011;11084;52.482;9.108;2022-08-03T15:30:01;3.03;;;1.77;;
21843;SDS011;11084;52.482;9.108;2022-08-03T15:32:32;3.53;;;1.40;;
21843;SDS011;11084;52.482;9.108;2022-08-03T15:34:59;3.72;;;1.40;;
21843;SDS011;11084;52.482;9.108;2022-08-03T15:37:25;6.53;;;1.35;;
21843;SDS011;11084;52.482;9.108;2022-08-03T15:39:53;3.53;;;1.30;;
21843;SDS011;11084;52.482;9.108;2022-08-03T15:42:21;4.03;;;1.42;;
21843;SDS011;11084;52.482;9.108;2022-08-03T15:44:48;3.20;;;1.60;;
21843;SDS011;11084;52.482;9.108;2022-08-03T15:47:15;5.40;;;1.80;;
21843;SDS011;11084;52.482;9.108;2022-08-03T15:49:42;1.70;;;1.38;;
21843;SDS011;11084;52.482;9.108;2022-08-03T15:52:09;3.35;;;1.27;;
21843;SDS011;11084;52.482;9.108;2022-08-03T15:54:37;1.58;;;1.23;;
21843;SDS011;11084;52.482;9.108;2022-08-03T15:57:03;5.88;;;1.50;;
21843;SDS011;11084;52.482;9.108;2022-08-03T15:59:29;8.90;;;1.48;;
21843;SDS011;11084;52.482;9.108;2022-08-03T16:01:55;3.08;;;1.27;;
21843;SDS011;11084;52.482;9.108;2022-08-03T16:04:21;7.25;;;1.70;;
21843;SDS011;11084;52.482;9.108;2022-08-03T16:06:48;3.55;;;1.48;;
21843;SDS011;11084;52.482;9.108;2022-08-03T16:09:14;5.95;;;1.45;;